sensor_id;sensor_type;location;lat;lon;timestamp;P1;durP1;ratioP1;P2;durP2;ratioP2
52730;SDS011;38624;53.242;6.974;2023-07-31T00:00:11;4.53;;;3.00;;
52730;SDS011;38624;53.242;6.974;2023-07-31T00:02:37;6.57;;;2.67;;
52730;SDS011;38624;53.242;6.974;2023-07-31T00:05:03;6.93;;;3.55;;
52730;SDS011;38624;53.242;6.974;2023-07-31T00:07:29;6.45;;;3.42;;
52730;SDS011;38624;53.242;6.974;2023-07-31T00:09:55;5.45;;;3.50;;
52730;SDS011;38624;53.242;6.974;2023-07-31T00:12:24;5.10;;;3.00;;
52730;SDS011;38624;53.242;6.974;2023-07-31T00:14:49;6.97;;;2.90;;
52730;SDS011;38624;53.242;6.974;2023-07-31T00:17:16;3.83;;;2.70;;
52730;SDS011;38624;53.242;6.974;2023-07-31T00:19:42;5.15;;;3.05;;
52730;SDS011;38624;53.242;6.974;2023-07-31T00:22:08;4.17;;;3.00;;
52730;SDS011;38624;53.242;6.974;2023-07-31T00:24:34;5.67;;;3.93;;
52730;SDS011;38624;53.242;6.974;2023-07-31T00:26:59;4.53;;;3.47;;
52730;SDS011;38624;53.242;6.974;2023-07-31T00:29:25;4.93;;;3.33;;
52730;SDS011;38624;53.242;6.974;2023-07-31T00:31:51;5.17;;;3.23;;
52730;SDS011;38624;53.242;6.974;2023-07-31T00:34:16;4.37;;;2.67;;
52730;SDS011;38624;53.242;6.974;2023-07-31T00:36:42;4.10;;;2.70;;
52730;SDS011;38624;53.242;6.974;2023-07-31T00:39:08;5.87;;;3.00;;
52730;SDS011;38624;53.242;6.974;2023-07-31T00:41:33;3.17;;;2.43;;
52730;SDS011;38624;53.242;6.974;2023-07-31T00:43:59;7.23;;;3.33;;
52730;SDS011;38624;53.242;6.974;2023-07-31T00:46:24;3.40;;;2.20;;
52730;SDS011;38624;53.242;6.974;2023-07-31T00:48:50;3.93;;;2.20;;
52730;SDS011;38624;53.242;6.974;2023-07-31T00:51:16;3.60;;;2.37;;
52730;SDS011;38624;53.242;6.974;2023-07-31T00:53:42;3.33;;;2.27;;
52730;SDS011;38624;53.242;6.974;2023-07-31T00:56:08;3.75;;;2.20;;
52730;SDS011;38624;53.242;6.974;2023-07-31T00:58:35;4.13;;;2.53;;
52730;SDS011;38624;53.242;6.974;2023-07-31T01:01:01;4.77;;;2.67;;
52730;SDS011;38624;53.242;6.974;2023-07-31T01:03:27;3.40;;;2.60;;
52730;SDS011;38624;53.242;6.974;2023-07-31T01:08:22;3.67;;;2.43;;
52730;SDS011;38624;53.242;6.974;2023-07-31T01:11:00;5.47;;;2.88;;
52730;SDS011;38624;53.242;6.974;2023-07-31T01:13:30;6.43;;;2.83;;
52730;SDS011;38624;53.242;6.974;2023-07-31T01:15:56;5.17;;;2.77;;
52730;SDS011;38624;53.242;6.974;2023-07-31T01:18:22;3.57;;;2.57;;
52730;SDS011;38624;53.242;6.974;2023-07-31T01:20:50;8.30;;;2.70;;
52730;SDS011;38624;53.242;6.974;2023-07-31T01:23:35;4.72;;;2.95;;
52730;SDS011;38624;53.242;6.974;2023-07-31T01:26:42;3.42;;;2.50;;
52730;SDS011;38624;53.242;6.974;2023-07-31T01:29:46;4.70;;;2.08;;
52730;SDS011;38624;53.242;6.974;2023-07-31T01:32:12;4.72;;;2.53;;
52730;SDS011;38624;53.242;6.974;2023-07-31T01:34:38;3.45;;;2.45;;
52730;SDS011;38624;53.242;6.974;2023-07-31T01:37:06;3.50;;;2.50;;
52730;SDS011;38624;53.242;6.974;2023-07-31T01:39:32;2.87;;;2.33;;
52730;SDS011;38624;53.242;6.974;2023-07-31T01:41:57;3.17;;;2.20;;
52730;SDS011;38624;53.242;6.974;2023-07-31T01:44:23;4.83;;;2.40;;
52730;SDS011;38624;53.242;6.974;2023-07-31T01:46:49;5.03;;;2.70;;
52730;SDS011;38624;53.242;6.974;2023-07-31T01:49:14;4.53;;;2.37;;
52730;SDS011;38624;53.242;6.974;2023-07-31T01:51:40;3.40;;;1.90;;
52730;SDS011;38624;53.242;6.974;2023-07-31T01:54:06;4.60;;;2.43;;
52730;SDS011;38624;53.242;6.974;2023-07-31T01:56:31;3.83;;;1.87;;
52730;SDS011;38624;53.242;6.974;2023-07-31T01:58:57;2.50;;;2.10;;
52730;SDS011;38624;53.242;6.974;2023-07-31T02:01:23;3.93;;;2.03;;
52730;SDS011;38624;53.242;6.974;2023-07-31T02:03:48;2.73;;;1.80;;
52730;SDS011;38624;53.242;6.974;2023-07-31T02:06:14;4.40;;;2.07;;
52730;SDS011;38624;53.242;6.974;2023-07-31T02:08:40;3.23;;;1.90;;
52730;SDS011;38624;53.242;6.974;2023-07-31T02:11:05;4.43;;;2.20;;
52730;SDS011;38624;53.242;6.974;2023-07-31T02:13:31;7.03;;;1.80;;
52730;SDS011;38624;53.242;6.974;2023-07-31T02:15:57;4.57;;;2.17;;
52730;SDS011;38624;53.242;6.974;2023-07-31T02:18:23;2.70;;;1.90;;
52730;SDS011;38624;53.242;6.974;2023-07-31T02:20:49;3.10;;;1.53;;
52730;SDS011;38624;53.242;6.974;2023-07-31T02:23:16;3.70;;;1.80;;
52730;SDS011;38624;53.242;6.974;2023-07-31T02:25:43;2.05;;;1.42;;
52730;SDS011;38624;53.242;6.974;2023-07-31T02:28:08;4.50;;;2.00;;
52730;SDS011;38624;53.242;6.974;2023-07-31T02:30:34;3.37;;;1.60;;
52730;SDS011;38624;53.242;6.974;2023-07-31T02:33:00;2.60;;;1.40;;
52730;SDS011;38624;53.242;6.974;2023-07-31T02:35:25;4.30;;;2.00;;
52730;SDS011;38624;53.242;6.974;2023-07-31T02:37:51;2.27;;;1.60;;
52730;SDS011;38624;53.242;6.974;2023-07-31T02:40:17;2.87;;;1.80;;
52730;SDS011;38624;53.242;6.974;2023-07-31T02:42:42;2.23;;;1.50;;
52730;SDS011;38624;53.242;6.974;2023-07-31T02:45:08;1.97;;;1.53;;
52730;SDS011;38624;53.242;6.974;2023-07-31T02:47:34;3.30;;;1.70;;
52730;SDS011;38624;53.242;6.974;2023-07-31T02:50:01;2.50;;;1.60;;
52730;SDS011;38624;53.242;6.974;2023-07-31T02:52:27;3.03;;;1.60;;
52730;SDS011;38624;53.242;6.974;2023-07-31T02:54:53;5.03;;;1.90;;
52730;SDS011;38624;53.242;6.974;2023-07-31T02:57:19;7.93;;;2.90;;
52730;SDS011;38624;53.242;6.974;2023-07-31T02:59:44;1.83;;;1.40;;
52730;SDS011;38624;53.242;6.974;2023-07-31T03:02:10;3.00;;;1.40;;
52730;SDS011;38624;53.242;6.974;2023-07-31T03:07:02;3.28;;;1.10;;
52730;SDS011;38624;53.242;6.974;2023-07-31T03:09:28;3.60;;;1.20;;
52730;SDS011;38624;53.242;6.974;2023-07-31T03:11:54;2.50;;;1.20;;
52730;SDS011;38624;53.242;6.974;2023-07-31T03:14:20;2.03;;;1.00;;
52730;SDS011;38624;53.242;6.974;2023-07-31T03:16:45;1.63;;;1.00;;
52730;SDS011;38624;53.242;6.974;2023-07-31T03:19:11;2.87;;;1.30;;
52730;SDS011;38624;53.242;6.974;2023-07-31T03:21:37;2.63;;;0.90;;
52730;SDS011;38624;53.242;6.974;2023-07-31T03:24:02;2.00;;;1.30;;
52730;SDS011;38624;53.242;6.974;2023-07-31T03:26:30;4.53;;;1.13;;
52730;SDS011;38624;53.242;6.974;2023-07-31T03:28:56;1.77;;;0.90;;
52730;SDS011;38624;53.242;6.974;2023-07-31T03:31:22;1.00;;;0.90;;
52730;SDS011;38624;53.242;6.974;2023-07-31T03:33:48;1.00;;;0.83;;
52730;SDS011;38624;53.242;6.974;2023-07-31T03:36:13;2.53;;;1.00;;
52730;SDS011;38624;53.242;6.974;2023-07-31T03:38:39;1.43;;;1.00;;
52730;SDS011;38624;53.242;6.974;2023-07-31T03:41:05;3.33;;;0.80;;
52730;SDS011;38624;53.242;6.974;2023-07-31T03:43:31;1.13;;;0.80;;
52730;SDS011;38624;53.242;6.974;2023-07-31T03:45:59;1.27;;;0.80;;
52730;SDS011;38624;53.242;6.974;2023-07-31T03:48:25;1.92;;;1.00;;
52730;SDS011;38624;53.242;6.974;2023-07-31T03:50:51;4.97;;;1.27;;
52730;SDS011;38624;53.242;6.974;2023-07-31T03:53:17;1.83;;;1.07;;
52730;SDS011;38624;53.242;6.974;2023-07-31T03:55:42;1.20;;;1.00;;
52730;SDS011;38624;53.242;6.974;2023-07-31T03:58:08;2.27;;;1.03;;
52730;SDS011;38624;53.242;6.974;2023-07-31T04:00:34;3.00;;;1.23;;
52730;SDS011;38624;53.242;6.974;2023-07-31T04:03:00;1.57;;;1.10;;
52730;SDS011;38624;53.242;6.974;2023-07-31T04:05:25;2.53;;;1.03;;
52730;SDS011;38624;53.242;6.974;2023-07-31T04:07:51;2.97;;;0.90;;
52730;SDS011;38624;53.242;6.974;2023-07-31T04:10:17;1.93;;;1.00;;
52730;SDS011;38624;53.242;6.974;2023-07-31T04:12:42;3.13;;;1.10;;
52730;SDS011;38624;53.242;6.974;2023-07-31T04:15:08;1.93;;;1.00;;
52730;SDS011;38624;53.242;6.974;2023-07-31T04:17:34;1.48;;;0.88;;
52730;SDS011;38624;53.242;6.974;2023-07-31T04:20:00;1.87;;;1.00;;
52730;SDS011;38624;53.242;6.974;2023-07-31T04:22:25;2.70;;;1.23;;
52730;SDS011;38624;53.242;6.974;2023-07-31T04:24:51;2.47;;;1.00;;
52730;SDS011;38624;53.242;6.974;2023-07-31T04:27:17;1.50;;;1.00;;
52730;SDS011;38624;53.242;6.974;2023-07-31T04:29:42;2.03;;;0.90;;
52730;SDS011;38624;53.242;6.974;2023-07-31T04:32:10;2.00;;;1.00;;
52730;SDS011;38624;53.242;6.974;2023-07-31T04:34:36;1.47;;;1.20;;
52730;SDS011;38624;53.242;6.974;2023-07-31T04:37:02;1.33;;;1.00;;
52730;SDS011;38624;53.242;6.974;2023-07-31T04:39:28;2.67;;;1.20;;
52730;SDS011;38624;53.242;6.974;2023-07-31T04:41:54;2.70;;;1.10;;
52730;SDS011;38624;53.242;6.974;2023-07-31T04:44:19;2.10;;;1.33;;
52730;SDS011;38624;53.242;6.974;2023-07-31T04:46:45;10.50;;;1.57;;
52730;SDS011;38624;53.242;6.974;2023-07-31T04:49:11;3.63;;;1.07;;
52730;SDS011;38624;53.242;6.974;2023-07-31T04:51:37;1.80;;;1.20;;
52730;SDS011;38624;53.242;6.974;2023-07-31T04:54:02;3.23;;;1.20;;
52730;SDS011;38624;53.242;6.974;2023-07-31T04:56:28;2.30;;;1.00;;
52730;SDS011;38624;53.242;6.974;2023-07-31T04:58:54;3.07;;;1.43;;
52730;SDS011;38624;53.242;6.974;2023-07-31T05:01:20;2.13;;;1.00;;
52730;SDS011;38624;53.242;6.974;2023-07-31T05:03:45;2.87;;;1.10;;
52730;SDS011;38624;53.242;6.974;2023-07-31T05:06:11;2.63;;;1.10;;
52730;SDS011;38624;53.242;6.974;2023-07-31T05:08:38;2.20;;;1.10;;
52730;SDS011;38624;53.242;6.974;2023-07-31T05:11:04;2.23;;;0.97;;
52730;SDS011;38624;53.242;6.974;2023-07-31T05:13:30;1.73;;;0.90;;
52730;SDS011;38624;53.242;6.974;2023-07-31T05:15:55;1.50;;;1.00;;
52730;SDS011;38624;53.242;6.974;2023-07-31T05:18:21;2.50;;;1.00;;
52730;SDS011;38624;53.242;6.974;2023-07-31T05:20:47;1.83;;;0.80;;
52730;SDS011;38624;53.242;6.974;2023-07-31T05:23:12;2.73;;;0.90;;
52730;SDS011;38624;53.242;6.974;2023-07-31T05:25:38;3.43;;;0.90;;
52730;SDS011;38624;53.242;6.974;2023-07-31T05:28:04;1.50;;;0.87;;
52730;SDS011;38624;53.242;6.974;2023-07-31T05:30:30;2.13;;;1.00;;
52730;SDS011;38624;53.242;6.974;2023-07-31T05:32:56;2.13;;;1.13;;
52730;SDS011;38624;53.242;6.974;2023-07-31T05:35:22;2.43;;;1.30;;
52730;SDS011;38624;53.242;6.974;2023-07-31T05:37:47;1.40;;;1.00;;
52730;SDS011;38624;53.242;6.974;2023-07-31T05:40:13;3.37;;;1.20;;
52730;SDS011;38624;53.242;6.974;2023-07-31T05:42:39;1.33;;;1.08;;
52730;SDS011;38624;53.242;6.974;2023-07-31T05:45:08;1.20;;;1.00;;
52730;SDS011;38624;53.242;6.974;2023-07-31T05:47:34;2.90;;;1.20;;
52730;SDS011;38624;53.242;6.974;2023-07-31T05:50:00;4.17;;;1.07;;
52730;SDS011;38624;53.242;6.974;2023-07-31T05:52:25;1.87;;;1.00;;
52730;SDS011;38624;53.242;6.974;2023-07-31T05:54:51;1.57;;;1.00;;
52730;SDS011;38624;53.242;6.974;2023-07-31T05:57:17;2.47;;;0.93;;
52730;SDS011;38624;53.242;6.974;2023-07-31T05:59:42;2.03;;;0.90;;
52730;SDS011;38624;53.242;6.974;2023-07-31T06:02:08;1.83;;;0.90;;
52730;SDS011;38624;53.242;6.974;2023-07-31T06:04:34;2.87;;;0.90;;
52730;SDS011;38624;53.242;6.974;2023-07-31T06:06:59;4.30;;;0.90;;
52730;SDS011;38624;53.242;6.974;2023-07-31T06:09:25;1.97;;;0.90;;
52730;SDS011;38624;53.242;6.974;2023-07-31T06:11:51;2.03;;;1.00;;
52730;SDS011;38624;53.242;6.974;2023-07-31T06:14:17;3.85;;;1.10;;
52730;SDS011;38624;53.242;6.974;2023-07-31T06:16:44;1.93;;;1.00;;
52730;SDS011;38624;53.242;6.974;2023-07-31T06:19:10;1.67;;;1.00;;
52730;SDS011;38624;53.242;6.974;2023-07-31T06:21:36;2.03;;;1.00;;
52730;SDS011;38624;53.242;6.974;2023-07-31T06:24:07;2.10;;;1.00;;
52730;SDS011;38624;53.242;6.974;2023-07-31T06:26:32;2.50;;;0.90;;
52730;SDS011;38624;53.242;6.974;2023-07-31T06:28:58;1.60;;;1.00;;
52730;SDS011;38624;53.242;6.974;2023-07-31T06:31:24;1.43;;;1.10;;
52730;SDS011;38624;53.242;6.974;2023-07-31T06:33:50;1.80;;;1.00;;
52730;SDS011;38624;53.242;6.974;2023-07-31T06:36:17;4.68;;;1.00;;
52730;SDS011;38624;53.242;6.974;2023-07-31T06:38:43;3.03;;;1.00;;
52730;SDS011;38624;53.242;6.974;2023-07-31T06:41:08;2.47;;;1.10;;
52730;SDS011;38624;53.242;6.974;2023-07-31T06:43:35;2.47;;;1.10;;
52730;SDS011;38624;53.242;6.974;2023-07-31T06:46:07;1.73;;;0.93;;
52730;SDS011;38624;53.242;6.974;2023-07-31T06:48:33;4.00;;;1.50;;
52730;SDS011;38624;53.242;6.974;2023-07-31T06:51:00;3.10;;;1.40;;
52730;SDS011;38624;53.242;6.974;2023-07-31T06:53:26;2.50;;;1.13;;
52730;SDS011;38624;53.242;6.974;2023-07-31T06:55:52;2.00;;;1.13;;
52730;SDS011;38624;53.242;6.974;2023-07-31T06:58:17;3.03;;;1.30;;
52730;SDS011;38624;53.242;6.974;2023-07-31T07:00:43;2.93;;;1.60;;
52730;SDS011;38624;53.242;6.974;2023-07-31T07:03:09;2.30;;;1.50;;
52730;SDS011;38624;53.242;6.974;2023-07-31T07:05:35;4.13;;;1.77;;
52730;SDS011;38624;53.242;6.974;2023-07-31T07:08:00;3.77;;;1.63;;
52730;SDS011;38624;53.242;6.974;2023-07-31T07:10:26;6.03;;;2.40;;
52730;SDS011;38624;53.242;6.974;2023-07-31T07:12:52;7.33;;;2.70;;
52730;SDS011;38624;53.242;6.974;2023-07-31T07:15:18;6.75;;;3.00;;
52730;SDS011;38624;53.242;6.974;2023-07-31T07:17:43;10.70;;;3.63;;
52730;SDS011;38624;53.242;6.974;2023-07-31T07:20:09;6.80;;;2.70;;
52730;SDS011;38624;53.242;6.974;2023-07-31T07:22:35;7.17;;;2.83;;
52730;SDS011;38624;53.242;6.974;2023-07-31T07:25:01;9.23;;;3.50;;
52730;SDS011;38624;53.242;6.974;2023-07-31T07:27:27;8.77;;;3.88;;
52730;SDS011;38624;53.242;6.974;2023-07-31T07:29:53;10.50;;;4.33;;
52730;SDS011;38624;53.242;6.974;2023-07-31T07:32:19;15.10;;;4.63;;
52730;SDS011;38624;53.242;6.974;2023-07-31T07:37:12;11.05;;;4.43;;
52730;SDS011;38624;53.242;6.974;2023-07-31T07:39:38;11.50;;;3.80;;
52730;SDS011;38624;53.242;6.974;2023-07-31T07:42:03;10.43;;;4.53;;
52730;SDS011;38624;53.242;6.974;2023-07-31T07:44:29;10.53;;;4.83;;
52730;SDS011;38624;53.242;6.974;2023-07-31T07:46:55;14.23;;;4.47;;
52730;SDS011;38624;53.242;6.974;2023-07-31T07:49:20;13.87;;;4.50;;
52730;SDS011;38624;53.242;6.974;2023-07-31T07:51:48;9.98;;;4.60;;
52730;SDS011;38624;53.242;6.974;2023-07-31T07:56:42;10.60;;;4.50;;
52730;SDS011;38624;53.242;6.974;2023-07-31T07:59:08;10.55;;;3.65;;
52730;SDS011;38624;53.242;6.974;2023-07-31T08:01:33;8.27;;;3.93;;
52730;SDS011;38624;53.242;6.974;2023-07-31T08:03:59;10.57;;;4.40;;
52730;SDS011;38624;53.242;6.974;2023-07-31T08:06:25;13.07;;;3.13;;
52730;SDS011;38624;53.242;6.974;2023-07-31T08:08:50;13.67;;;3.43;;
52730;SDS011;38624;53.242;6.974;2023-07-31T08:11:16;6.00;;;3.00;;
52730;SDS011;38624;53.242;6.974;2023-07-31T08:13:42;5.30;;;2.80;;
52730;SDS011;38624;53.242;6.974;2023-07-31T08:16:07;7.10;;;2.70;;
52730;SDS011;38624;53.242;6.974;2023-07-31T08:18:33;5.18;;;2.70;;
52730;SDS011;38624;53.242;6.974;2023-07-31T08:20:59;4.43;;;2.10;;
52730;SDS011;38624;53.242;6.974;2023-07-31T08:23:30;4.75;;;2.35;;
52730;SDS011;38624;53.242;6.974;2023-07-31T08:25:55;4.17;;;2.07;;
52730;SDS011;38624;53.242;6.974;2023-07-31T08:28:21;4.37;;;2.47;;
52730;SDS011;38624;53.242;6.974;2023-07-31T08:30:46;4.90;;;2.00;;
52730;SDS011;38624;53.242;6.974;2023-07-31T08:33:12;4.60;;;1.90;;
52730;SDS011;38624;53.242;6.974;2023-07-31T08:35:38;3.67;;;2.10;;
52730;SDS011;38624;53.242;6.974;2023-07-31T08:38:04;4.40;;;2.40;;
52730;SDS011;38624;53.242;6.974;2023-07-31T08:40:29;5.23;;;2.07;;
52730;SDS011;38624;53.242;6.974;2023-07-31T08:42:55;4.47;;;2.20;;
52730;SDS011;38624;53.242;6.974;2023-07-31T08:45:24;5.65;;;2.40;;
52730;SDS011;38624;53.242;6.974;2023-07-31T08:47:51;5.65;;;2.42;;
52730;SDS011;38624;53.242;6.974;2023-07-31T08:52:43;5.28;;;1.80;;
52730;SDS011;38624;53.242;6.974;2023-07-31T08:55:10;4.30;;;1.88;;
52730;SDS011;38624;53.242;6.974;2023-07-31T08:57:37;20.43;;;2.17;;
52730;SDS011;38624;53.242;6.974;2023-07-31T09:00:04;3.13;;;1.52;;
52730;SDS011;38624;53.242;6.974;2023-07-31T09:02:34;4.55;;;1.63;;
52730;SDS011;38624;53.242;6.974;2023-07-31T09:07:35;3.10;;;1.30;;
52730;SDS011;38624;53.242;6.974;2023-07-31T09:10:02;3.65;;;1.70;;
52730;SDS011;38624;53.242;6.974;2023-07-31T09:12:29;2.28;;;1.38;;
52730;SDS011;38624;53.242;6.974;2023-07-31T09:14:56;2.03;;;1.20;;
52730;SDS011;38624;53.242;6.974;2023-07-31T09:17:29;5.57;;;1.50;;
52730;SDS011;38624;53.242;6.974;2023-07-31T09:19:56;2.88;;;1.52;;
52730;SDS011;38624;53.242;6.974;2023-07-31T09:25:04;2.70;;;1.40;;
52730;SDS011;38624;53.242;6.974;2023-07-31T09:27:58;1.77;;;1.25;;
52730;SDS011;38624;53.242;6.974;2023-07-31T09:30:25;3.92;;;1.50;;
52730;SDS011;38624;53.242;6.974;2023-07-31T09:32:59;1.92;;;1.20;;
52730;SDS011;38624;53.242;6.974;2023-07-31T09:35:28;2.00;;;1.30;;
52730;SDS011;38624;53.242;6.974;2023-07-31T09:37:58;2.17;;;1.42;;
52730;SDS011;38624;53.242;6.974;2023-07-31T09:40:26;3.17;;;1.40;;
52730;SDS011;38624;53.242;6.974;2023-07-31T09:43:03;2.47;;;1.30;;
52730;SDS011;38624;53.242;6.974;2023-07-31T09:45:34;2.72;;;1.38;;
52730;SDS011;38624;53.242;6.974;2023-07-31T09:48:01;1.35;;;0.90;;
52730;SDS011;38624;53.242;6.974;2023-07-31T09:50:28;3.30;;;1.17;;
52730;SDS011;38624;53.242;6.974;2023-07-31T09:52:55;2.85;;;1.20;;
52730;SDS011;38624;53.242;6.974;2023-07-31T09:55:20;1.63;;;0.93;;
52730;SDS011;38624;53.242;6.974;2023-07-31T09:57:49;1.43;;;0.93;;
52730;SDS011;38624;53.242;6.974;2023-07-31T10:00:16;2.05;;;1.10;;
52730;SDS011;38624;53.242;6.974;2023-07-31T10:02:46;1.13;;;0.90;;
52730;SDS011;38624;53.242;6.974;2023-07-31T10:05:13;3.35;;;0.95;;
52730;SDS011;38624;53.242;6.974;2023-07-31T10:07:45;2.05;;;0.93;;
52730;SDS011;38624;53.242;6.974;2023-07-31T10:10:21;1.33;;;0.93;;
52730;SDS011;38624;53.242;6.974;2023-07-31T10:15:13;1.98;;;0.90;;
52730;SDS011;38624;53.242;6.974;2023-07-31T10:17:40;0.85;;;0.80;;
52730;SDS011;38624;53.242;6.974;2023-07-31T10:20:06;1.00;;;0.80;;
52730;SDS011;38624;53.242;6.974;2023-07-31T10:24:59;1.23;;;0.82;;
52730;SDS011;38624;53.242;6.974;2023-07-31T10:29:52;0.95;;;0.60;;
52730;SDS011;38624;53.242;6.974;2023-07-31T10:32:20;1.15;;;0.55;;
52730;SDS011;38624;53.242;6.974;2023-07-31T10:37:19;0.75;;;0.50;;
52730;SDS011;38624;53.242;6.974;2023-07-31T10:39:54;0.50;;;0.50;;
52730;SDS011;38624;53.242;6.974;2023-07-31T10:42:27;1.23;;;0.50;;
52730;SDS011;38624;53.242;6.974;2023-07-31T10:45:04;2.10;;;0.50;;
52730;SDS011;38624;53.242;6.974;2023-07-31T10:47:38;0.95;;;0.55;;
52730;SDS011;38624;53.242;6.974;2023-07-31T10:50:16;1.02;;;0.57;;
52730;SDS011;38624;53.242;6.974;2023-07-31T10:52:50;1.95;;;0.60;;
52730;SDS011;38624;53.242;6.974;2023-07-31T10:58:00;1.40;;;0.70;;
52730;SDS011;38624;53.242;6.974;2023-07-31T11:00:32;1.60;;;0.65;;
52730;SDS011;38624;53.242;6.974;2023-07-31T11:08:19;0.50;;;0.50;;
52730;SDS011;38624;53.242;6.974;2023-07-31T11:10:50;0.70;;;0.57;;
52730;SDS011;38624;53.242;6.974;2023-07-31T11:13:47;1.38;;;0.60;;
52730;SDS011;38624;53.242;6.974;2023-07-31T11:18:41;0.52;;;0.50;;
52730;SDS011;38624;53.242;6.974;2023-07-31T11:21:11;1.30;;;0.65;;
52730;SDS011;38624;53.242;6.974;2023-07-31T11:23:45;0.40;;;0.40;;
52730;SDS011;38624;53.242;6.974;2023-07-31T11:26:11;0.60;;;0.50;;
52730;SDS011;38624;53.242;6.974;2023-07-31T11:28:37;0.60;;;0.50;;
52730;SDS011;38624;53.242;6.974;2023-07-31T11:31:03;0.30;;;0.30;;
52730;SDS011;38624;53.242;6.974;2023-07-31T11:33:29;0.40;;;0.40;;
52730;SDS011;38624;53.242;6.974;2023-07-31T11:35:55;0.47;;;0.47;;
52730;SDS011;38624;53.242;6.974;2023-07-31T11:38:32;0.45;;;0.40;;
52730;SDS011;38624;53.242;6.974;2023-07-31T11:40:59;0.30;;;0.30;;
52730;SDS011;38624;53.242;6.974;2023-07-31T11:43:27;0.80;;;0.30;;
52730;SDS011;38624;53.242;6.974;2023-07-31T11:45:54;1.30;;;0.50;;
52730;SDS011;38624;53.242;6.974;2023-07-31T11:48:31;0.68;;;0.40;;
52730;SDS011;38624;53.242;6.974;2023-07-31T11:53:29;0.98;;;0.40;;
52730;SDS011;38624;53.242;6.974;2023-07-31T11:55:58;0.45;;;0.40;;
52730;SDS011;38624;53.242;6.974;2023-07-31T11:58:25;0.40;;;0.40;;
52730;SDS011;38624;53.242;6.974;2023-07-31T12:00:51;0.75;;;0.40;;
52730;SDS011;38624;53.242;6.974;2023-07-31T12:03:18;0.85;;;0.40;;
52730;SDS011;38624;53.242;6.974;2023-07-31T12:05:44;1.00;;;0.50;;
52730;SDS011;38624;53.242;6.974;2023-07-31T12:08:12;0.60;;;0.50;;
52730;SDS011;38624;53.242;6.974;2023-07-31T12:10:38;0.65;;;0.60;;
52730;SDS011;38624;53.242;6.974;2023-07-31T12:13:11;1.55;;;0.50;;
52730;SDS011;38624;53.242;6.974;2023-07-31T12:15:44;0.60;;;0.57;;
52730;SDS011;38624;53.242;6.974;2023-07-31T12:18:14;5.78;;;0.82;;
52730;SDS011;38624;53.242;6.974;2023-07-31T12:21:02;2.10;;;0.60;;
52730;SDS011;38624;53.242;6.974;2023-07-31T12:23:31;1.87;;;0.90;;
52730;SDS011;38624;53.242;6.974;2023-07-31T12:28:35;1.80;;;0.70;;
52730;SDS011;38624;53.242;6.974;2023-07-31T12:31:12;1.80;;;0.60;;
52730;SDS011;38624;53.242;6.974;2023-07-31T12:33:45;1.38;;;0.75;;
52730;SDS011;38624;53.242;6.974;2023-07-31T12:36:13;1.17;;;0.70;;
52730;SDS011;38624;53.242;6.974;2023-07-31T12:38:40;1.55;;;0.60;;
52730;SDS011;38624;53.242;6.974;2023-07-31T12:41:06;2.22;;;0.70;;
52730;SDS011;38624;53.242;6.974;2023-07-31T12:43:33;1.90;;;0.60;;
52730;SDS011;38624;53.242;6.974;2023-07-31T12:45:59;0.85;;;0.60;;
52730;SDS011;38624;53.242;6.974;2023-07-31T12:48:25;1.10;;;0.70;;
52730;SDS011;38624;53.242;6.974;2023-07-31T12:50:51;1.50;;;0.67;;
52730;SDS011;38624;53.242;6.974;2023-07-31T12:53:16;1.17;;;0.70;;
52730;SDS011;38624;53.242;6.974;2023-07-31T12:55:42;1.67;;;0.70;;
52730;SDS011;38624;53.242;6.974;2023-07-31T12:58:08;1.85;;;0.80;;
52730;SDS011;38624;53.242;6.974;2023-07-31T13:00:34;2.43;;;0.70;;
52730;SDS011;38624;53.242;6.974;2023-07-31T13:03:00;2.17;;;0.90;;
52730;SDS011;38624;53.242;6.974;2023-07-31T13:05:27;1.27;;;0.85;;
52730;SDS011;38624;53.242;6.974;2023-07-31T13:07:53;1.17;;;0.80;;
52730;SDS011;38624;53.242;6.974;2023-07-31T13:10:19;2.10;;;0.87;;
52730;SDS011;38624;53.242;6.974;2023-07-31T13:12:45;3.30;;;0.90;;
52730;SDS011;38624;53.242;6.974;2023-07-31T13:15:11;1.20;;;0.80;;
52730;SDS011;38624;53.242;6.974;2023-07-31T13:17:37;2.78;;;0.90;;
52730;SDS011;38624;53.242;6.974;2023-07-31T13:20:03;1.40;;;1.00;;
52730;SDS011;38624;53.242;6.974;2023-07-31T13:22:30;1.33;;;0.85;;
52730;SDS011;38624;53.242;6.974;2023-07-31T13:24:55;1.67;;;0.90;;
52730;SDS011;38624;53.242;6.974;2023-07-31T13:27:21;3.03;;;0.90;;
52730;SDS011;38624;53.242;6.974;2023-07-31T13:29:48;1.23;;;1.00;;
52730;SDS011;38624;53.242;6.974;2023-07-31T13:34:40;2.53;;;1.00;;
52730;SDS011;38624;53.242;6.974;2023-07-31T13:37:06;1.77;;;1.20;;
52730;SDS011;38624;53.242;6.974;2023-07-31T13:39:32;1.27;;;1.00;;
52730;SDS011;38624;53.242;6.974;2023-07-31T13:41:58;4.25;;;1.55;;
52730;SDS011;38624;53.242;6.974;2023-07-31T13:44:24;3.42;;;1.40;;
52730;SDS011;38624;53.242;6.974;2023-07-31T13:46:51;3.35;;;1.35;;
52730;SDS011;38624;53.242;6.974;2023-07-31T13:49:16;1.90;;;1.20;;
52730;SDS011;38624;53.242;6.974;2023-07-31T13:51:42;3.30;;;1.03;;
52730;SDS011;38624;53.242;6.974;2023-07-31T13:54:08;3.20;;;1.67;;
52730;SDS011;38624;53.242;6.974;2023-07-31T13:56:34;2.15;;;1.20;;
52730;SDS011;38624;53.242;6.974;2023-07-31T13:59:00;4.73;;;1.90;;
52730;SDS011;38624;53.242;6.974;2023-07-31T14:01:26;4.82;;;1.83;;
52730;SDS011;38624;53.242;6.974;2023-07-31T14:03:52;3.47;;;1.50;;
52730;SDS011;38624;53.242;6.974;2023-07-31T14:06:18;4.80;;;2.07;;
52730;SDS011;38624;53.242;6.974;2023-07-31T14:08:44;2.80;;;1.20;;
52730;SDS011;38624;53.242;6.974;2023-07-31T14:11:10;9.07;;;2.10;;
52730;SDS011;38624;53.242;6.974;2023-07-31T14:13:35;7.30;;;2.15;;
52730;SDS011;38624;53.242;6.974;2023-07-31T14:16:01;7.53;;;2.10;;
52730;SDS011;38624;53.242;6.974;2023-07-31T14:18:27;4.90;;;1.90;;
52730;SDS011;38624;53.242;6.974;2023-07-31T14:20:52;6.07;;;1.90;;
52730;SDS011;38624;53.242;6.974;2023-07-31T14:23:18;5.33;;;1.90;;
52730;SDS011;38624;53.242;6.974;2023-07-31T14:25:45;4.00;;;1.98;;
52730;SDS011;38624;53.242;6.974;2023-07-31T14:28:11;5.43;;;2.30;;
52730;SDS011;38624;53.242;6.974;2023-07-31T14:30:37;5.80;;;2.20;;
52730;SDS011;38624;53.242;6.974;2023-07-31T14:33:02;6.18;;;2.00;;
52730;SDS011;38624;53.242;6.974;2023-07-31T14:35:28;7.03;;;2.00;;
52730;SDS011;38624;53.242;6.974;2023-07-31T14:37:54;4.77;;;1.97;;
52730;SDS011;38624;53.242;6.974;2023-07-31T14:40:20;4.23;;;2.10;;
52730;SDS011;38624;53.242;6.974;2023-07-31T14:42:45;5.13;;;2.13;;
52730;SDS011;38624;53.242;6.974;2023-07-31T14:45:11;3.03;;;1.67;;
52730;SDS011;38624;53.242;6.974;2023-07-31T14:47:37;6.63;;;2.40;;
52730;SDS011;38624;53.242;6.974;2023-07-31T14:50:03;7.17;;;2.37;;
52730;SDS011;38624;53.242;6.974;2023-07-31T14:52:29;6.80;;;2.17;;
52730;SDS011;38624;53.242;6.974;2023-07-31T14:54:55;4.85;;;2.20;;
52730;SDS011;38624;53.242;6.974;2023-07-31T14:57:21;9.80;;;2.90;;
52730;SDS011;38624;53.242;6.974;2023-07-31T14:59:46;5.77;;;2.30;;
52730;SDS011;38624;53.242;6.974;2023-07-31T15:02:12;4.97;;;2.30;;
52730;SDS011;38624;53.242;6.974;2023-07-31T15:04:38;5.93;;;2.50;;
52730;SDS011;38624;53.242;6.974;2023-07-31T15:07:04;7.72;;;2.88;;
52730;SDS011;38624;53.242;6.974;2023-07-31T15:09:30;7.85;;;2.60;;
52730;SDS011;38624;53.242;6.974;2023-07-31T15:11:56;9.50;;;2.67;;
52730;SDS011;38624;53.242;6.974;2023-07-31T15:14:23;7.10;;;2.50;;
52730;SDS011;38624;53.242;6.974;2023-07-31T15:16:49;7.43;;;2.60;;
52730;SDS011;38624;53.242;6.974;2023-07-31T15:19:15;5.38;;;2.30;;
52730;SDS011;38624;53.242;6.974;2023-07-31T15:21:41;7.80;;;2.85;;
52730;SDS011;38624;53.242;6.974;2023-07-31T15:24:06;6.67;;;2.87;;
52730;SDS011;38624;53.242;6.974;2023-07-31T15:26:32;5.90;;;2.63;;
52730;SDS011;38624;53.242;6.974;2023-07-31T15:29:02;9.45;;;3.00;;
52730;SDS011;38624;53.242;6.974;2023-07-31T15:31:34;8.48;;;2.75;;